createdAt,value
2018-12-13T00:02:03.142Z,76.27
2018-12-13T00:04:32.392Z,75.87
2018-12-13T00:07:01.653Z,75.91
2018-12-13T00:09:30.909Z,75.58
2018-12-13T00:12:00.173Z,75.88
2018-12-13T00:14:29.436Z,75.90
2018-12-13T00:16:58.712Z,75.60
2018-12-13T00:19:27.955Z,75.75
2018-12-13T00:21:57.225Z,75.72
2018-12-13T00:24:26.509Z,75.73
2018-12-13T00:26:55.774Z,75.70
2018-12-13T00:29:25.028Z,75.65
2018-12-13T00:31:54.286Z,75.56
2018-12-13T00:34:23.547Z,75.68
2018-12-13T00:36:52.839Z,75.65
2018-12-13T00:39:22.088Z,75.33
2018-12-13T00:41:51.345Z,75.57
2018-12-13T00:44:20.677Z,75.71
2018-12-13T00:46:49.951Z,75.60
2018-12-13T00:49:19.232Z,75.45
2018-12-13T00:51:48.480Z,75.32
2018-12-13T00:54:17.754Z,75.29
2018-12-13T00:56:47.008Z,75.33
2018-12-13T00:59:16.265Z,75.25
2018-12-13T01:01:45.519Z,74.93
2018-12-13T01:04:14.785Z,75.09
2018-12-13T01:06:46.068Z,75.16
2018-12-13T01:09:14.207Z,75.15
2018-12-13T01:11:43.466Z,75.05
2018-12-13T01:14:12.740Z,75.30
2018-12-13T01:16:41.993Z,75.33
2018-12-13T01:19:11.258Z,75.40
2018-12-13T01:21:40.523Z,75.25
2018-12-13T01:24:28.851Z,75.35
2018-12-13T01:26:58.116Z,75.33
2018-12-13T01:29:27.377Z,75.23
2018-12-13T01:31:56.635Z,75.17
2018-12-13T01:34:25.903Z,75.12
2018-12-13T01:36:55.160Z,75.06
2018-12-13T01:39:24.434Z,75.05
2018-12-13T01:41:53.683Z,75.05
2018-12-13T01:44:22.949Z,74.92
2018-12-13T01:46:52.215Z,74.85
2018-12-13T01:49:21.484Z,74.75
2018-12-13T01:51:50.748Z,74.91
2018-12-13T01:54:20.018Z,74.95
2018-12-13T01:56:49.278Z,74.80
2018-12-13T01:59:18.537Z,74.73
2018-12-13T02:01:47.788Z,74.61
2018-12-13T02:04:17.066Z,74.74
2018-12-13T02:06:46.313Z,74.66
2018-12-13T02:09:15.577Z,74.62
2018-12-13T02:11:44.853Z,74.48
2018-12-13T02:14:14.130Z,74.66
2018-12-13T02:16:43.449Z,74.67
2018-12-13T02:19:12.721Z,74.53
2018-12-13T02:21:41.975Z,74.43
2018-12-13T02:24:11.246Z,74.33
2018-12-13T02:26:40.523Z,74.30
2018-12-13T02:29:09.790Z,74.38
2018-12-13T02:31:39.061Z,74.38
2018-12-13T02:34:08.329Z,74.34
2018-12-13T02:36:37.597Z,74.36
2018-12-13T02:39:07.591Z,74.34
2018-12-13T02:41:36.862Z,74.34
2018-12-13T02:44:06.136Z,74.25
2018-12-13T02:46:35.421Z,74.19
2018-12-13T02:49:23.761Z,74.29
2018-12-13T02:51:53.030Z,74.31
2018-12-13T02:54:22.287Z,74.35
2018-12-13T02:56:51.557Z,74.29
2018-12-13T02:59:20.807Z,74.10
2018-12-13T03:01:50.079Z,74.22
2018-12-13T03:04:19.337Z,74.13
2018-12-13T03:06:48.701Z,74.24
2018-12-13T03:09:17.956Z,74.23
2018-12-13T03:11:47.210Z,74.28
2018-12-13T03:14:16.514Z,74.16
2018-12-13T03:16:45.801Z,74.15
2018-12-13T03:19:15.047Z,74.08
2018-12-13T03:21:44.325Z,74.01
2018-12-13T03:24:13.590Z,74.01
2018-12-13T03:26:42.840Z,73.94
2018-12-13T03:29:31.968Z,73.95
2018-12-13T03:32:01.256Z,73.93
2018-12-13T03:34:30.514Z,73.85
2018-12-13T03:36:59.802Z,73.81
2018-12-13T03:39:29.062Z,73.72
2018-12-13T03:42:18.206Z,73.77
2018-12-13T03:44:47.463Z,73.66
2018-12-13T03:47:16.735Z,73.67
2018-12-13T03:49:45.998Z,73.75
2018-12-13T03:52:15.262Z,73.68
2018-12-13T03:54:44.519Z,73.67
2018-12-13T03:57:13.783Z,73.71
2018-12-13T03:59:43.035Z,73.70
2018-12-13T04:02:12.305Z,73.68
2018-12-13T04:05:00.640Z,73.62
2018-12-13T04:07:29.917Z,73.67
2018-12-13T04:09:59.182Z,73.80
2018-12-13T04:12:28.480Z,73.80
2018-12-13T04:14:57.743Z,73.78
2018-12-13T04:17:27.007Z,73.73
2018-12-13T04:19:56.260Z,73.69
2018-12-13T04:22:25.573Z,73.79
2018-12-13T04:24:54.875Z,73.79
2018-12-13T04:27:24.086Z,73.86
2018-12-13T04:29:53.335Z,73.86
2018-12-13T04:32:22.604Z,73.84
2018-12-13T04:34:51.857Z,73.85
2018-12-13T04:37:21.117Z,73.84
2018-12-13T04:39:50.403Z,73.81
2018-12-13T04:42:19.660Z,73.88
2018-12-13T04:44:48.923Z,73.80
2018-12-13T04:47:18.186Z,73.88
2018-12-13T04:49:47.462Z,73.81
2018-12-13T04:52:16.718Z,73.94
2018-12-13T04:54:45.976Z,74.08
2018-12-13T04:57:15.266Z,74.12
2018-12-13T04:59:44.546Z,74.33
2018-12-13T05:02:13.803Z,74.50
2018-12-13T05:04:43.072Z,74.53
2018-12-13T05:07:12.342Z,74.50
2018-12-13T05:09:41.611Z,74.32
2018-12-13T05:12:10.866Z,74.40
2018-12-13T05:14:40.142Z,74.42
2018-12-13T05:17:09.411Z,74.33
2018-12-13T05:19:38.673Z,74.30
2018-12-13T05:22:07.939Z,74.31
2018-12-13T05:24:37.206Z,74.37
2018-12-13T05:27:06.459Z,74.31
2018-12-13T05:29:35.738Z,74.29
2018-12-13T05:32:04.995Z,74.32
2018-12-13T05:34:34.264Z,74.34
2018-12-13T05:37:03.522Z,74.53
2018-12-13T05:39:32.823Z,74.59
2018-12-13T05:42:02.083Z,74.60
2018-12-13T05:44:31.355Z,74.70
2018-12-13T05:47:00.639Z,74.82
2018-12-13T05:49:29.919Z,74.91
2018-12-13T05:51:59.174Z,74.88
2018-12-13T05:54:28.450Z,74.97
2018-12-13T05:56:57.706Z,75.13
2018-12-13T05:59:26.971Z,75.17
2018-12-13T06:01:56.229Z,75.27
2018-12-13T06:04:25.508Z,75.41
2018-12-13T06:06:54.749Z,75.47
2018-12-13T06:09:24.020Z,75.54
2018-12-13T06:11:53.291Z,75.53
2018-12-13T06:14:22.551Z,75.58
2018-12-13T06:16:51.819Z,75.78
2018-12-13T06:19:26.558Z,76.03
2018-12-13T06:21:51.266Z,76.24
2018-12-13T06:24:20.515Z,76.49
2018-12-13T06:26:49.780Z,76.57
2018-12-13T06:29:19.029Z,77.07
2018-12-13T06:31:48.308Z,77.87
2018-12-13T06:34:17.573Z,78.33
2018-12-13T06:36:46.843Z,78.44
2018-12-13T06:39:16.117Z,78.73
2018-12-13T06:41:45.382Z,78.97
2018-12-13T06:44:14.639Z,79.07
2018-12-13T06:46:43.911Z,79.17
2018-12-13T06:49:13.174Z,79.31
2018-12-13T06:51:42.442Z,79.50
2018-12-13T06:54:11.710Z,79.51
2018-12-13T06:56:40.976Z,79.52
2018-12-13T06:59:29.346Z,79.45
2018-12-13T07:01:58.635Z,79.48
2018-12-13T07:04:27.893Z,79.48
2018-12-13T07:06:57.158Z,79.54
2018-12-13T07:09:26.416Z,79.71
2018-12-13T07:11:55.686Z,79.83
2018-12-13T07:14:24.946Z,79.86
2018-12-13T07:16:54.203Z,79.91
2018-12-13T07:19:23.449Z,79.91
2018-12-13T07:21:52.768Z,79.95
2018-12-13T07:24:22.019Z,79.91
2018-12-13T07:26:51.290Z,79.80
2018-12-13T07:29:20.545Z,79.78
2018-12-13T07:31:49.802Z,79.60
2018-12-13T07:34:19.058Z,79.59
2018-12-13T07:36:48.324Z,79.51
2018-12-13T07:39:17.597Z,79.44
2018-12-13T07:41:46.861Z,79.47
2018-12-13T07:44:16.119Z,79.44
2018-12-13T07:46:45.384Z,79.42
2018-12-13T07:49:14.645Z,79.38
2018-12-13T07:51:43.906Z,78.94
2018-12-13T07:54:13.161Z,78.65
2018-12-13T07:56:42.422Z,78.63
2018-12-13T07:59:11.679Z,78.84
2018-12-13T08:01:40.966Z,78.95
2018-12-13T08:04:30.107Z,78.99
2018-12-13T08:06:59.378Z,78.83
2018-12-13T08:09:28.708Z,78.67
2018-12-13T08:11:57.978Z,78.48
2018-12-13T08:14:27.235Z,78.23
2018-12-13T08:16:56.499Z,78.04
2018-12-13T08:19:25.761Z,78.17
2018-12-13T08:21:55.057Z,78.21
2018-12-13T08:24:24.301Z,78.27
2018-12-13T08:26:53.569Z,77.87
2018-12-13T08:29:22.819Z,77.45
2018-12-13T08:31:52.089Z,77.54
2018-12-13T08:34:21.350Z,77.45
2018-12-13T08:36:50.619Z,77.28
2018-12-13T08:39:19.880Z,77.03
2018-12-13T08:41:49.151Z,76.97
2018-12-13T08:44:18.407Z,80.64
2018-12-13T08:46:47.669Z,84.88
2018-12-13T08:49:16.929Z,87.15
2018-12-13T08:51:46.200Z,87.04
2018-12-13T08:54:15.467Z,86.30
2018-12-13T08:56:44.738Z,83.55
2018-12-13T08:59:13.996Z,81.29
2018-12-13T09:01:43.250Z,80.22
2018-12-13T09:04:12.520Z,78.27
2018-12-13T09:06:41.788Z,77.20
2018-12-13T09:09:11.085Z,76.04
2018-12-13T09:11:40.345Z,76.65
2018-12-13T09:14:09.598Z,76.75
2018-12-13T09:16:38.854Z,75.74
2018-12-13T09:19:08.122Z,75.78
2018-12-13T09:21:37.417Z,75.68
2018-12-13T09:24:06.680Z,75.57
2018-12-13T09:26:35.929Z,75.36
2018-12-13T09:29:25.079Z,75.78
2018-12-13T09:31:54.347Z,75.27
2018-12-13T09:34:23.596Z,75.15
2018-12-13T09:36:52.862Z,75.43
2018-12-13T09:39:22.129Z,74.92
2018-12-13T09:41:51.396Z,73.94
2018-12-13T09:44:20.667Z,74.14
2018-12-13T09:46:49.930Z,74.27
2018-12-13T09:49:19.190Z,73.49
2018-12-13T09:51:48.436Z,73.88
2018-12-13T09:54:17.707Z,73.62
2018-12-13T09:56:46.966Z,73.70
2018-12-13T09:59:16.247Z,73.63
2018-12-13T10:01:45.501Z,73.68
2018-12-13T10:04:14.782Z,73.85
2018-12-13T10:06:44.048Z,73.26
2018-12-13T10:09:13.355Z,73.64
2018-12-13T10:11:42.621Z,73.62
2018-12-13T10:14:11.920Z,73.30
2018-12-13T10:16:41.188Z,72.80
2018-12-13T10:19:10.480Z,72.97
2018-12-13T10:21:39.738Z,72.95
2018-12-13T10:24:09.007Z,72.37
2018-12-13T10:26:57.327Z,72.62
2018-12-13T10:29:26.627Z,73.00
2018-12-13T10:31:55.915Z,72.92
2018-12-13T10:34:25.178Z,72.74
2018-12-13T10:36:54.535Z,72.05
2018-12-13T10:39:23.813Z,71.71
2018-12-13T10:41:53.076Z,71.56
2018-12-13T10:44:41.069Z,71.48
2018-12-13T10:47:10.395Z,71.40
2018-12-13T10:49:39.665Z,70.32
2018-12-13T10:52:08.925Z,70.25
2018-12-13T10:54:38.205Z,69.89
2018-12-13T10:57:07.465Z,70.17
2018-12-13T10:59:36.738Z,70.42
2018-12-13T11:02:43.803Z,70.49
2018-12-13T11:05:13.074Z,69.55
2018-12-13T11:07:42.364Z,75.13
2018-12-13T11:10:11.639Z,71.88
2018-12-13T11:12:40.921Z,76.18
2018-12-13T11:15:10.260Z,73.78
2018-12-13T11:17:39.531Z,78.16
2018-12-13T11:20:08.790Z,71.64
2018-12-13T11:22:38.060Z,71.03
2018-12-13T11:25:07.326Z,71.76
2018-12-13T11:28:14.672Z,71.15
2018-12-13T11:30:43.946Z,71.60
2018-12-13T11:33:13.223Z,71.54
2018-12-13T11:35:42.552Z,71.55
2018-12-13T11:38:11.900Z,71.06
2018-12-13T11:40:41.178Z,71.61
2018-12-13T11:43:10.450Z,71.60
2018-12-13T11:45:39.718Z,71.37
2018-12-13T11:48:08.994Z,71.34
2018-12-13T11:50:45.810Z,70.94
2018-12-13T11:53:15.085Z,69.85
2018-12-13T11:55:44.346Z,71.03
2018-12-13T11:58:15.198Z,71.01
2018-12-13T12:00:44.411Z,70.89
2018-12-13T12:03:13.709Z,70.62
2018-12-13T12:05:43.243Z,70.95
2018-12-13T12:08:12.470Z,70.46
2018-12-13T12:10:41.737Z,70.77
2018-12-13T12:13:11.004Z,70.83
2018-12-13T12:15:40.280Z,70.53
2018-12-13T12:18:09.572Z,69.75
2018-12-13T12:20:38.845Z,70.41
2018-12-13T12:23:08.098Z,70.33
2018-12-13T12:25:37.362Z,70.55
2018-12-13T12:28:06.606Z,70.17
2018-12-13T12:30:35.889Z,70.59
2018-12-13T12:33:05.152Z,70.62
2018-12-13T12:35:34.430Z,70.42
2018-12-13T12:38:03.687Z,70.26
2018-12-13T12:40:32.958Z,70.70
2018-12-13T12:43:02.214Z,70.49
2018-12-13T12:45:31.509Z,70.70
2018-12-13T12:48:00.784Z,70.81
2018-12-13T12:50:40.489Z,70.77
2018-12-13T12:53:09.750Z,70.57
2018-12-13T12:55:39.016Z,70.62
2018-12-13T12:58:08.286Z,70.36
2018-12-13T13:00:37.576Z,70.73
2018-12-13T13:03:06.832Z,70.76
2018-12-13T13:05:36.111Z,70.90
2018-12-13T13:08:05.371Z,70.50
2018-12-13T13:10:34.632Z,70.73
2018-12-13T13:13:03.892Z,71.00
2018-12-13T13:15:33.159Z,70.90
2018-12-13T13:18:02.428Z,70.54
2018-12-13T13:20:31.703Z,70.68
2018-12-13T13:23:00.970Z,70.93
2018-12-13T13:25:30.225Z,71.11
2018-12-13T13:27:59.493Z,71.17
2018-12-13T13:30:28.758Z,71.24
2018-12-13T13:32:58.015Z,70.93
2018-12-13T13:35:27.260Z,71.42
2018-12-13T13:37:56.531Z,71.46
2018-12-13T13:40:25.779Z,71.55
2018-12-13T13:42:55.037Z,71.98
2018-12-13T13:48:13.622Z,72.55
2018-12-13T13:50:42.870Z,72.68
2018-12-13T13:53:12.142Z,72.72
2018-12-13T13:55:41.409Z,72.74
2018-12-13T13:58:10.664Z,72.75
2018-12-13T14:00:39.910Z,72.66
2018-12-13T14:03:09.232Z,72.53
2018-12-13T14:05:38.496Z,72.36
2018-12-13T14:08:07.783Z,72.48
2018-12-13T14:10:37.046Z,72.87
2018-12-13T14:13:06.326Z,72.93
2018-12-13T14:15:35.588Z,72.95
2018-12-13T14:18:04.906Z,72.98
2018-12-13T14:20:34.161Z,72.86
2018-12-13T14:23:03.612Z,73.13
2018-12-13T14:25:32.866Z,73.25
2018-12-13T14:28:02.231Z,73.23
2018-12-13T14:30:31.484Z,73.18
2018-12-13T14:33:00.756Z,73.18
2018-12-13T14:35:30.021Z,73.20
2018-12-13T14:37:59.287Z,73.26
2018-12-13T14:40:28.543Z,73.25
2018-12-13T14:42:57.817Z,73.27
2018-12-13T14:45:27.117Z,73.14
2018-12-13T14:47:56.391Z,73.08
2018-12-13T14:50:25.659Z,73.20
2018-12-13T14:52:54.931Z,73.30
2018-12-13T14:55:24.201Z,73.28
2018-12-13T14:57:53.463Z,73.25
2018-12-13T15:00:22.714Z,73.21
2018-12-13T15:02:51.958Z,72.85
2018-12-13T15:05:21.221Z,73.36
2018-12-13T15:07:50.473Z,73.57
2018-12-13T15:10:19.738Z,73.56
2018-12-13T15:12:48.989Z,73.67
2018-12-13T15:15:18.264Z,73.68
2018-12-13T15:17:47.514Z,73.88
2018-12-13T15:20:16.800Z,74.02
2018-12-13T15:22:46.062Z,74.04
2018-12-13T15:25:34.382Z,74.18
2018-12-13T15:28:03.645Z,74.10
2018-12-13T15:30:32.903Z,74.06
2018-12-13T15:33:02.162Z,74.16
2018-12-13T15:35:31.431Z,74.24
2018-12-13T15:38:00.689Z,74.55
2018-12-13T15:40:29.956Z,74.73
2018-12-13T15:42:59.211Z,75.06
2018-12-13T15:48:04.198Z,75.14
2018-12-13T15:50:33.461Z,75.08
2018-12-13T15:53:02.714Z,75.16
2018-12-13T15:55:31.984Z,75.29
2018-12-13T15:58:01.253Z,75.35
2018-12-13T16:00:30.524Z,75.34
2018-12-13T16:02:59.776Z,75.28
2018-12-13T16:05:29.037Z,75.32
2018-12-13T16:07:58.397Z,75.27
2018-12-13T16:13:03.264Z,75.24
2018-12-13T16:15:32.569Z,75.27
2018-12-13T16:18:01.827Z,75.33
2018-12-13T16:20:31.068Z,75.18
2018-12-13T16:23:00.337Z,75.09
2018-12-13T16:25:29.589Z,75.04
2018-12-13T16:27:58.855Z,75.19
2018-12-13T16:30:28.194Z,75.15
2018-12-13T16:32:57.473Z,74.89
2018-12-13T16:35:26.720Z,74.76
2018-12-13T16:38:15.620Z,74.89
2018-12-13T16:40:44.871Z,74.71
2018-12-13T16:43:14.141Z,74.93
2018-12-13T16:45:43.387Z,74.87
2018-12-13T16:48:12.669Z,74.83
2018-12-13T16:50:41.961Z,74.81
2018-12-13T16:53:30.829Z,75.01
2018-12-13T16:56:00.101Z,74.95
2018-12-13T16:58:29.372Z,74.76
2018-12-13T17:00:58.629Z,74.75
2018-12-13T17:03:46.964Z,74.57
2018-12-13T17:06:16.233Z,74.29
2018-12-13T17:08:45.512Z,73.98
2018-12-13T17:11:14.767Z,74.21
2018-12-13T17:13:44.093Z,74.04
2018-12-13T17:16:13.351Z,73.79
2018-12-13T17:18:42.618Z,73.83
2018-12-13T17:21:11.871Z,73.97
2018-12-13T17:23:41.186Z,73.56
2018-12-13T17:26:10.450Z,73.93
2018-12-13T17:28:39.728Z,73.78
2018-12-13T17:31:09.000Z,73.61
2018-12-13T17:33:38.272Z,73.74
2018-12-13T17:36:07.536Z,73.66
2018-12-13T17:38:36.809Z,73.77
2018-12-13T17:41:06.074Z,73.53
2018-12-13T17:43:35.435Z,73.68
2018-12-13T17:46:04.689Z,73.52
2018-12-13T17:48:53.577Z,73.61
2018-12-13T17:51:22.906Z,73.47
2018-12-13T17:53:52.171Z,73.42
2018-12-13T17:56:21.423Z,73.33
2018-12-13T17:58:50.698Z,73.48
2018-12-13T18:01:19.949Z,73.09
2018-12-13T18:03:49.219Z,72.69
2018-12-13T18:09:08.884Z,73.07
2018-12-13T18:11:38.118Z,73.10
2018-12-13T18:14:07.378Z,73.07
2018-12-13T18:16:36.635Z,72.81
2018-12-13T18:19:05.946Z,72.90
2018-12-13T18:21:35.208Z,72.95
2018-12-13T18:24:04.502Z,72.90
2018-12-13T18:26:33.833Z,72.88
2018-12-13T18:31:51.487Z,72.80
2018-12-13T18:34:20.814Z,87.16
2018-12-13T18:36:50.085Z,82.40
2018-12-13T18:39:19.335Z,80.23
2018-12-13T18:41:48.598Z,78.34
2018-12-13T18:44:17.866Z,75.89
2018-12-13T18:46:47.153Z,75.56
2018-12-13T18:49:16.414Z,75.06
2018-12-13T18:51:45.732Z,78.92
2018-12-13T18:54:14.992Z,83.02
2018-12-13T18:56:44.267Z,76.86
2018-12-13T18:59:13.525Z,74.75
2018-12-13T19:02:01.843Z,74.88
2018-12-13T19:04:31.124Z,74.02
2018-12-13T19:07:00.393Z,74.74
2018-12-13T19:09:29.656Z,74.11
2018-12-13T19:11:58.933Z,74.44
2018-12-13T19:14:28.185Z,74.59
2018-12-13T19:16:57.476Z,74.42
2018-12-13T19:19:26.735Z,74.29
2018-12-13T19:21:56.016Z,73.93
2018-12-13T19:24:25.277Z,73.85
2018-12-13T19:26:54.545Z,74.06
2018-12-13T19:29:23.802Z,73.96
2018-12-13T19:31:53.088Z,73.94
2018-12-13T19:34:22.343Z,73.95
2018-12-13T19:36:51.623Z,73.91
2018-12-13T19:39:20.899Z,74.09
2018-12-13T19:41:50.182Z,74.06
2018-12-13T19:44:19.443Z,73.90
2018-12-13T19:46:48.709Z,73.92
2018-12-13T19:49:17.974Z,73.52
2018-12-13T19:51:47.260Z,73.36
2018-12-13T19:54:16.527Z,73.70
2018-12-13T19:56:45.854Z,73.57
2018-12-13T19:59:15.112Z,72.77
2018-12-13T20:01:44.387Z,73.12
2018-12-13T20:04:13.666Z,73.21
2018-12-13T20:06:42.918Z,73.62
2018-12-13T20:09:12.188Z,73.73
2018-12-13T20:11:41.643Z,73.63
2018-12-13T20:14:10.904Z,73.67
2018-12-13T20:16:40.917Z,73.29
2018-12-13T20:19:11.043Z,73.28
2018-12-13T20:21:41.151Z,73.26
2018-12-13T20:24:11.089Z,73.17
2018-12-13T20:27:01.146Z,73.18
2018-12-13T20:29:34.540Z,72.93
2018-12-13T20:32:06.101Z,72.69
2018-12-13T20:34:39.288Z,72.60
2018-12-13T20:40:04.667Z,72.51
2018-12-13T20:42:35.588Z,72.91
2018-12-13T20:45:06.874Z,73.03
2018-12-13T20:47:37.562Z,72.95
2018-12-13T20:50:09.386Z,72.71
2018-12-13T20:52:58.540Z,72.81
2018-12-13T20:55:29.733Z,72.38
2018-12-13T20:58:03.380Z,72.77
2018-12-13T21:00:34.124Z,72.75
2018-12-13T21:03:03.403Z,72.75
2018-12-13T21:05:32.686Z,72.82
2018-12-13T21:08:21.556Z,72.84
2018-12-13T21:10:50.826Z,72.84
2018-12-13T21:13:20.174Z,72.75
2018-12-13T21:15:49.378Z,72.61
2018-12-13T21:18:18.661Z,72.47
2018-12-13T21:20:47.953Z,72.42
2018-12-13T21:23:17.219Z,72.43
2018-12-13T21:25:46.530Z,72.44
2018-12-13T21:28:15.992Z,72.48
2018-12-13T21:30:45.271Z,72.62
2018-12-13T21:33:14.534Z,72.88
2018-12-13T21:35:43.850Z,73.01
2018-12-13T21:38:13.137Z,73.17
2018-12-13T21:40:42.429Z,73.17
2018-12-13T21:43:11.690Z,73.15
2018-12-13T21:45:40.979Z,73.37
2018-12-13T21:48:10.250Z,73.46
2018-12-13T21:50:39.539Z,73.60
2018-12-13T21:53:08.810Z,73.67
2018-12-13T21:55:38.092Z,73.72
2018-12-13T21:58:07.367Z,73.71
2018-12-13T22:00:36.629Z,73.56
2018-12-13T22:03:05.882Z,73.68
2018-12-13T22:05:35.147Z,73.70
2018-12-13T22:08:23.995Z,73.55
2018-12-13T22:11:12.871Z,73.63
2018-12-13T22:13:42.126Z,73.61
2018-12-13T22:16:11.709Z,73.44
2018-12-13T22:18:40.964Z,73.30
2018-12-13T22:21:10.233Z,73.51
2018-12-13T22:23:39.485Z,73.62
2018-12-13T22:26:08.813Z,73.62
2018-12-13T22:28:38.089Z,73.59
2018-12-13T22:31:07.367Z,73.46
2018-12-13T22:33:36.715Z,73.50
2018-12-13T22:36:05.985Z,73.52
2018-12-13T22:38:35.232Z,73.41
2018-12-13T22:41:04.490Z,73.70
2018-12-13T22:43:33.743Z,73.79
2018-12-13T22:46:04.445Z,73.81
2018-12-13T22:48:34.194Z,73.81
2018-12-13T22:51:03.454Z,73.84
2018-12-13T22:53:32.717Z,74.27
2018-12-13T22:56:01.985Z,74.52
2018-12-13T22:58:31.233Z,74.80
2018-12-13T23:01:00.505Z,74.90
2018-12-13T23:03:29.760Z,74.88
2018-12-13T23:05:59.017Z,74.94
2018-12-13T23:08:28.269Z,74.97
2018-12-13T23:10:57.610Z,74.91
2018-12-13T23:13:26.865Z,74.92
2018-12-13T23:16:15.751Z,74.72
2018-12-13T23:18:45.001Z,74.76
2018-12-13T23:21:14.261Z,74.74
2018-12-13T23:23:43.528Z,74.75
2018-12-13T23:26:12.780Z,74.71
2018-12-13T23:28:42.052Z,74.85
2018-12-13T23:31:30.629Z,74.84
2018-12-13T23:33:59.876Z,74.69
2018-12-13T23:36:29.148Z,74.86
2018-12-13T23:38:58.393Z,75.05
2018-12-13T23:41:27.659Z,75.11
2018-12-13T23:43:56.902Z,75.09
2018-12-13T23:46:26.196Z,74.92
2018-12-13T23:48:55.456Z,74.86
2018-12-13T23:51:24.727Z,74.81
2018-12-13T23:53:53.983Z,74.70
2018-12-13T23:56:23.257Z,74.72
